createdAt,value
2019-02-21T00:02:49.931Z,84.81
2019-02-21T00:03:45.536Z,84.74
2019-02-21T00:04:23.201Z,84.55
2019-02-21T00:05:04.983Z,84.44
2019-02-21T00:05:53.569Z,84.42
2019-02-21T00:06:32.082Z,84.31
2019-02-21T00:07:31.479Z,84.23
2019-02-21T00:08:16.588Z,84.14
2019-02-21T00:08:54.509Z,84.09
2019-02-21T00:09:47.607Z,84.03
2019-02-21T00:10:51.900Z,83.96
2019-02-21T00:13:04.305Z,83.77
2019-02-21T00:13:53.843Z,83.57
2019-02-21T00:15:40.166Z,83.42
2019-02-21T00:16:17.830Z,83.33
2019-02-21T00:16:59.783Z,83.17
2019-02-21T00:17:44.535Z,83.06
2019-02-21T00:18:25.812Z,82.96
2019-02-21T00:21:22.199Z,82.33
2019-02-21T00:22:22.881Z,81.93
2019-02-21T00:23:11.990Z,81.47
2019-02-21T00:23:59.586Z,81.19
2019-02-21T00:24:37.000Z,80.99
2019-02-21T00:25:15.038Z,80.86
2019-02-21T00:25:56.222Z,80.76
2019-02-21T00:26:46.929Z,80.65
2019-02-21T00:27:24.743Z,80.56
2019-02-21T00:28:11.758Z,80.46
2019-02-21T00:28:54.112Z,80.34
2019-02-21T00:29:39.879Z,80.17
2019-02-21T00:30:18.823Z,79.99
2019-02-21T00:31:18.905Z,79.86
2019-02-21T00:31:56.595Z,79.71
2019-02-21T00:32:35.424Z,79.53
2019-02-21T00:33:34.701Z,79.35
2019-02-21T00:34:12.750Z,79.20
2019-02-21T00:35:04.642Z,79.00
2019-02-21T00:35:53.243Z,78.69
2019-02-21T00:36:30.207Z,78.38
2019-02-21T00:37:25.788Z,78.13
2019-02-21T00:38:07.582Z,77.97
2019-02-21T00:39:05.957Z,77.85
2019-02-21T00:39:46.891Z,77.76
2019-02-21T00:40:33.747Z,77.67
2019-02-21T00:41:13.253Z,77.53
2019-02-21T00:41:52.285Z,77.35
2019-02-21T00:42:35.120Z,77.06
2019-02-21T00:44:21.973Z,76.87
2019-02-21T00:46:29.223Z,76.34
2019-02-21T00:47:08.172Z,76.24
2019-02-21T00:48:12.684Z,76.17
2019-02-21T00:48:56.269Z,76.14
2019-02-21T00:49:52.486Z,76.10
2019-02-21T00:50:29.370Z,76.00
2019-02-21T00:51:10.560Z,75.75
2019-02-21T00:52:07.227Z,75.69
2019-02-21T00:53:07.232Z,75.61
2019-02-21T00:54:24.779Z,75.44
2019-02-21T00:55:04.819Z,75.30
2019-02-21T00:55:47.445Z,74.83
2019-02-21T00:56:29.955Z,74.56
2019-02-21T00:57:10.136Z,74.51
2019-02-21T00:57:46.901Z,74.58
2019-02-21T00:59:03.499Z,74.59
2019-02-21T01:00:01.864Z,74.07
2019-02-21T01:00:47.237Z,73.55
2019-02-21T01:01:25.117Z,73.55
2019-02-21T01:02:05.743Z,74.16
2019-02-21T01:02:43.354Z,74.16
2019-02-21T01:03:22.130Z,73.97
2019-02-21T01:04:00.750Z,73.77
2019-02-21T01:04:47.369Z,73.53
2019-02-21T01:05:27.774Z,72.83
2019-02-21T01:06:11.163Z,72.83
2019-02-21T01:06:49.731Z,73.43
2019-02-21T01:07:30.720Z,73.20
2019-02-21T01:08:16.157Z,72.89
2019-02-21T01:08:58.170Z,71.47
2019-02-21T01:09:35.932Z,71.47
2019-02-21T01:10:12.519Z,71.43
2019-02-21T01:10:55.685Z,71.43
2019-02-21T01:11:37.188Z,70.73
2019-02-21T01:12:20.513Z,70.73
2019-02-21T01:13:04.858Z,70.46
2019-02-21T01:14:05.207Z,69.47
2019-02-21T01:15:02.783Z,70.24
2019-02-21T01:15:51.955Z,70.29
2019-02-21T01:16:30.782Z,70.29
2019-02-21T01:17:14.872Z,69.29
2019-02-21T01:18:49.784Z,69.27
2019-02-21T01:19:30.428Z,68.80
2019-02-21T01:20:30.372Z,68.49
2019-02-21T01:21:06.868Z,68.58
2019-02-21T01:21:52.419Z,68.58
2019-02-21T01:22:47.845Z,68.54
2019-02-21T01:23:30.321Z,68.29
2019-02-21T01:24:08.295Z,68.00
2019-02-21T01:25:04.770Z,67.32
2019-02-21T01:25:57.869Z,67.32
2019-02-21T01:26:44.579Z,68.61
2019-02-21T01:27:21.433Z,68.61
2019-02-21T01:28:02.855Z,68.00
2019-02-21T01:28:53.992Z,67.77
2019-02-21T01:29:52.806Z,67.57
2019-02-21T01:30:30.240Z,66.74
2019-02-21T01:31:08.317Z,66.21
2019-02-21T01:31:59.658Z,67.05
2019-02-21T01:33:04.794Z,67.32
2019-02-21T01:33:42.454Z,66.52
2019-02-21T01:34:53.778Z,66.52
2019-02-21T01:35:39.021Z,65.41
2019-02-21T01:36:31.161Z,65.41
2019-02-21T01:37:25.110Z,65.52
2019-02-21T01:38:03.772Z,65.36
2019-02-21T01:38:43.820Z,65.36
2019-02-21T01:39:25.393Z,65.23
2019-02-21T01:40:03.750Z,65.05
2019-02-21T01:40:46.634Z,64.86
2019-02-21T01:41:27.843Z,65.11
2019-02-21T01:42:26.285Z,65.12
2019-02-21T01:43:03.433Z,64.86
2019-02-21T01:43:47.552Z,64.86
2019-02-21T01:44:24.334Z,64.93
2019-02-21T01:45:02.752Z,64.77
2019-02-21T01:45:52.015Z,64.88
2019-02-21T01:46:31.256Z,64.80
2019-02-21T01:47:19.632Z,64.73
2019-02-21T01:48:18.144Z,64.63
2019-02-21T01:49:06.331Z,64.66
2019-02-21T01:50:20.471Z,64.98
2019-02-21T01:51:04.595Z,64.86
2019-02-21T01:51:51.913Z,64.92
2019-02-21T01:53:02.900Z,64.93
2019-02-21T01:53:45.409Z,64.84
2019-02-21T01:54:30.911Z,64.70
2019-02-21T01:55:20.245Z,64.33
2019-02-21T01:56:11.513Z,64.59
2019-02-21T01:57:16.844Z,64.70
2019-02-21T01:58:11.595Z,64.46
2019-02-21T01:59:22.954Z,64.26
2019-02-21T02:01:07.640Z,64.11
2019-02-21T02:01:37.678Z,64.10
2019-02-21T02:02:15.302Z,63.21
2019-02-21T02:04:30.628Z,62.93
2019-02-21T02:05:10.505Z,63.14
2019-02-21T02:06:09.807Z,62.97
2019-02-21T02:06:48.379Z,62.67
2019-02-21T02:07:38.130Z,62.61
2019-02-21T02:08:14.405Z,62.58
2019-02-21T02:09:00.396Z,62.24
2019-02-21T02:09:59.552Z,62.19
2019-02-21T02:10:39.575Z,62.25
2019-02-21T02:11:32.173Z,62.08
2019-02-21T02:13:21.664Z,62.35
2019-02-21T02:14:17.094Z,62.04
2019-02-21T02:15:01.044Z,61.73
2019-02-21T02:15:39.657Z,61.32
2019-02-21T02:16:33.490Z,61.22
2019-02-21T02:17:28.801Z,61.10
2019-02-21T02:18:08.181Z,61.04
2019-02-21T02:19:47.030Z,61.03
2019-02-21T02:20:44.433Z,60.79
2019-02-21T02:22:47.317Z,60.23
2019-02-21T02:23:43.087Z,59.29
2019-02-21T02:24:24.312Z,58.44
2019-02-21T02:25:49.063Z,58.28
2019-02-21T02:27:47.587Z,57.89
2019-02-21T02:29:09.211Z,58.03
2019-02-21T02:30:01.748Z,58.18
2019-02-21T02:31:42.188Z,58.18
2019-02-21T02:32:20.660Z,57.96
2019-02-21T02:33:22.220Z,58.07
2019-02-21T02:34:22.324Z,57.91
2019-02-21T02:35:39.855Z,57.77
2019-02-21T02:36:30.511Z,57.97
2019-02-21T02:37:23.146Z,57.80
2019-02-21T02:38:31.544Z,57.69
2019-02-21T02:39:10.186Z,57.69
2019-02-21T02:39:53.576Z,57.67
2019-02-21T02:40:42.021Z,57.63
2019-02-21T02:41:43.855Z,57.54
2019-02-21T02:42:52.538Z,57.97
2019-02-21T02:43:49.325Z,57.54
2019-02-21T02:44:39.962Z,57.45
2019-02-21T02:45:19.207Z,57.35
2019-02-21T02:45:59.846Z,57.19
2019-02-21T02:46:43.806Z,57.02
2019-02-21T02:48:28.131Z,56.88
2019-02-21T02:49:19.688Z,56.83
2019-02-21T02:50:30.813Z,56.70
2019-02-21T02:51:12.759Z,56.77
2019-02-21T02:52:26.665Z,56.69
2019-02-21T02:53:24.248Z,56.13
2019-02-21T02:54:03.533Z,56.05
2019-02-21T02:54:48.830Z,56.19
2019-02-21T02:55:28.374Z,56.13
2019-02-21T02:56:07.417Z,56.18
2019-02-21T02:56:44.519Z,56.40
2019-02-21T02:57:25.379Z,56.34
2019-02-21T02:59:06.846Z,56.21
2019-02-21T02:59:48.197Z,56.29
2019-02-21T03:00:26.144Z,56.16
2019-02-21T03:01:12.577Z,55.97
2019-02-21T03:02:08.099Z,56.07
2019-02-21T03:03:00.595Z,56.02
2019-02-21T03:04:10.299Z,55.56
2019-02-21T03:04:48.627Z,55.44
2019-02-21T03:05:31.780Z,55.05
2019-02-21T03:06:10.413Z,55.17
2019-02-21T03:07:09.444Z,55.59
2019-02-21T03:08:11.009Z,55.62
2019-02-21T03:08:50.610Z,55.46
2019-02-21T03:09:29.300Z,55.49
2019-02-21T03:10:09.300Z,55.40
2019-02-21T03:10:53.783Z,55.12
2019-02-21T03:11:32.522Z,55.04
2019-02-21T03:12:15.988Z,55.05
2019-02-21T03:13:16.272Z,55.05
2019-02-21T03:14:00.575Z,54.42
2019-02-21T03:14:57.882Z,53.82
2019-02-21T03:15:39.523Z,53.70
2019-02-21T03:16:25.524Z,53.69
2019-02-21T03:18:43.861Z,53.02
2019-02-21T03:19:21.954Z,53.02
2019-02-21T03:20:00.618Z,53.09
2019-02-21T03:20:48.222Z,53.24
2019-02-21T03:21:30.410Z,53.29
2019-02-21T03:22:27.230Z,52.46
2019-02-21T03:23:07.999Z,52.57
2019-02-21T03:23:45.464Z,52.96
2019-02-21T03:24:45.529Z,52.97
2019-02-21T03:25:22.730Z,52.96
2019-02-21T03:26:06.892Z,53.05
2019-02-21T03:27:56.338Z,53.13
2019-02-21T03:28:45.712Z,53.09
2019-02-21T03:29:25.844Z,53.30
2019-02-21T03:30:03.655Z,53.02
2019-02-21T03:30:43.831Z,53.19
2019-02-21T03:31:26.808Z,53.30
2019-02-21T03:32:04.329Z,53.45
2019-02-21T03:32:46.289Z,53.58
2019-02-21T03:33:28.374Z,53.55
2019-02-21T03:34:05.980Z,53.58
2019-02-21T03:34:54.825Z,53.70
2019-02-21T03:35:54.093Z,53.68
2019-02-21T03:36:32.197Z,53.76
2019-02-21T03:37:14.383Z,53.68
2019-02-21T03:37:52.819Z,53.51
2019-02-21T03:38:35.336Z,53.35
2019-02-21T03:39:25.046Z,53.32
2019-02-21T03:40:06.157Z,53.16
2019-02-21T03:40:50.778Z,53.09
2019-02-21T03:41:27.870Z,53.25
2019-02-21T03:42:04.876Z,53.05
2019-02-21T03:42:44.472Z,52.76
2019-02-21T03:43:21.947Z,52.81
2019-02-21T03:44:00.709Z,52.92
2019-02-21T03:44:59.443Z,53.02
2019-02-21T03:45:39.088Z,53.18
2019-02-21T03:46:17.149Z,53.78
2019-02-21T03:47:03.571Z,53.79
2019-02-21T03:47:50.642Z,53.55
2019-02-21T03:48:37.960Z,53.60
2019-02-21T03:49:14.943Z,53.47
2019-02-21T03:50:01.155Z,53.52
2019-02-21T03:50:37.981Z,53.45
2019-02-21T03:51:14.724Z,53.31
2019-02-21T03:51:52.875Z,53.46
2019-02-21T03:52:40.365Z,53.50
2019-02-21T03:53:24.006Z,53.46
2019-02-21T03:54:17.130Z,53.23
2019-02-21T03:54:53.484Z,53.04
2019-02-21T03:55:45.962Z,52.93
2019-02-21T03:56:34.846Z,53.12
2019-02-21T03:57:11.086Z,53.31
2019-02-21T03:57:55.821Z,53.18
2019-02-21T03:58:33.820Z,52.96
2019-02-21T03:59:18.072Z,52.95
2019-02-21T04:00:07.877Z,52.97
2019-02-21T04:00:48.672Z,53.08
2019-02-21T04:01:47.715Z,53.37
2019-02-21T04:02:26.677Z,53.44
2019-02-21T04:03:14.526Z,53.47
2019-02-21T04:03:52.299Z,53.38
2019-02-21T04:04:52.878Z,53.22
2019-02-21T04:05:38.707Z,53.06
2019-02-21T04:06:23.033Z,52.74
2019-02-21T04:07:07.205Z,53.31
2019-02-21T04:08:00.612Z,53.34
2019-02-21T04:08:40.784Z,53.06
2019-02-21T04:09:19.382Z,52.78
2019-02-21T04:10:08.749Z,52.90
2019-02-21T04:11:00.273Z,53.10
2019-02-21T04:11:37.724Z,52.77
2019-02-21T04:13:40.209Z,52.84
2019-02-21T04:14:17.774Z,52.73
2019-02-21T04:14:58.606Z,52.82
2019-02-21T04:15:40.901Z,52.80
2019-02-21T04:16:23.845Z,53.13
2019-02-21T04:17:04.665Z,53.06
2019-02-21T04:18:40.854Z,53.20
2019-02-21T04:19:27.093Z,53.45
2019-02-21T04:20:12.030Z,53.44
2019-02-21T04:20:48.418Z,53.36
2019-02-21T04:21:31.319Z,53.18
2019-02-21T04:22:09.537Z,53.10
2019-02-21T04:22:46.375Z,53.22
2019-02-21T04:23:36.247Z,53.04
2019-02-21T04:24:19.663Z,52.78
2019-02-21T04:24:55.950Z,52.77
2019-02-21T04:25:40.202Z,52.23
2019-02-21T04:26:30.557Z,51.99
2019-02-21T04:27:36.452Z,52.00
2019-02-21T04:28:16.939Z,52.32
2019-02-21T04:29:34.942Z,52.91
2019-02-21T04:30:14.168Z,52.82
2019-02-21T04:30:57.869Z,52.87
2019-02-21T04:31:45.130Z,52.81
2019-02-21T04:32:29.376Z,52.71
2019-02-21T04:33:50.190Z,52.74
2019-02-21T04:34:45.123Z,52.72
2019-02-21T04:35:24.345Z,52.63
2019-02-21T04:36:05.636Z,52.52
2019-02-21T04:37:09.494Z,52.50
2019-02-21T04:37:45.817Z,52.74
2019-02-21T04:38:25.905Z,52.34
2019-02-21T04:39:10.327Z,52.16
2019-02-21T04:39:51.360Z,52.12
2019-02-21T04:40:56.271Z,52.44
2019-02-21T04:41:38.776Z,52.53
2019-02-21T04:42:32.505Z,52.53
2019-02-21T04:43:41.181Z,52.34
2019-02-21T04:44:43.536Z,51.81
2019-02-21T04:45:21.708Z,51.59
2019-02-21T04:46:42.056Z,51.44
2019-02-21T04:48:48.961Z,51.26
2019-02-21T04:49:48.682Z,51.23
2019-02-21T04:50:29.635Z,51.59
2019-02-21T04:51:42.556Z,51.03
2019-02-21T04:52:23.084Z,51.00
2019-02-21T04:53:13.995Z,50.82
2019-02-21T04:54:17.303Z,50.83
2019-02-21T04:55:16.982Z,50.97
2019-02-21T04:56:15.084Z,50.52
2019-02-21T04:56:59.188Z,50.93
2019-02-21T04:57:52.243Z,50.52
2019-02-21T04:59:06.681Z,50.32
2019-02-21T05:00:18.691Z,50.13
2019-02-21T05:01:26.620Z,50.10
2019-02-21T05:02:09.353Z,50.00
2019-02-21T05:03:50.867Z,49.92
2019-02-21T05:04:31.912Z,50.02
2019-02-21T05:05:12.380Z,49.97
2019-02-21T05:05:55.818Z,49.93
2019-02-21T05:06:37.335Z,49.93
2019-02-21T05:07:13.434Z,49.92
2019-02-21T05:07:49.921Z,50.26
2019-02-21T05:08:40.722Z,49.36
2019-02-21T05:09:39.495Z,49.13
2019-02-21T05:10:19.148Z,48.89
2019-02-21T05:11:01.034Z,49.15
2019-02-21T05:11:51.414Z,49.78
2019-02-21T05:14:16.600Z,50.07
2019-02-21T05:15:26.780Z,50.21
2019-02-21T05:16:31.159Z,50.23
2019-02-21T05:17:11.835Z,50.38
2019-02-21T05:18:17.457Z,50.38
2019-02-21T05:19:21.282Z,49.85
2019-02-21T05:20:01.121Z,49.70
2019-02-21T05:21:10.184Z,49.57
2019-02-21T05:22:11.480Z,49.44
2019-02-21T05:22:51.366Z,49.28
2019-02-21T05:23:29.932Z,49.03
2019-02-21T05:24:24.145Z,49.03
2019-02-21T05:25:06.527Z,48.84
2019-02-21T05:26:17.997Z,49.28
2019-02-21T05:27:36.367Z,49.22
2019-02-21T05:28:31.180Z,48.83
2019-02-21T05:29:34.200Z,48.70
2019-02-21T05:30:23.048Z,48.80
2019-02-21T05:31:16.004Z,48.79
2019-02-21T05:32:28.081Z,48.45
2019-02-21T05:33:27.356Z,48.36
2019-02-21T05:35:31.286Z,48.62
2019-02-21T05:36:45.971Z,48.31
2019-02-21T05:37:57.087Z,48.21
2019-02-21T05:39:13.958Z,47.96
2019-02-21T05:41:47.949Z,47.88
2019-02-21T05:42:45.707Z,47.83
2019-02-21T05:45:23.611Z,47.84
2019-02-21T05:46:37.457Z,47.35
2019-02-21T05:49:07.707Z,48.00
2019-02-21T05:50:36.076Z,48.15
2019-02-21T05:53:51.659Z,47.67
2019-02-21T05:55:43.496Z,47.70
2019-02-21T05:56:49.936Z,47.63
2019-02-21T05:58:08.184Z,47.58
2019-02-21T05:59:42.583Z,47.38
2019-02-21T06:02:28.283Z,47.39
2019-02-21T06:04:58.966Z,47.06
2019-02-21T06:07:46.691Z,47.11
2019-02-21T06:12:36.210Z,47.21
2019-02-21T06:13:40.381Z,48.10
2019-02-21T06:14:56.107Z,48.26
2019-02-21T06:16:32.573Z,48.70
2019-02-21T06:17:45.191Z,49.11
2019-02-21T06:19:08.435Z,49.32
2019-02-21T06:21:50.760Z,49.81
2019-02-21T06:24:26.262Z,49.13
2019-02-21T06:27:26.515Z,48.81
2019-02-21T06:28:33.633Z,48.68
2019-02-21T06:29:25.679Z,49.07
2019-02-21T06:30:08.861Z,49.34
2019-02-21T06:30:57.173Z,49.60
2019-02-21T06:31:46.681Z,49.82
2019-02-21T06:32:32.797Z,49.77
2019-02-21T06:35:21.049Z,52.38
2019-02-21T06:36:07.930Z,53.08
2019-02-21T06:36:56.069Z,53.35
2019-02-21T06:37:37.779Z,53.52
2019-02-21T06:39:13.198Z,53.78
2019-02-21T06:39:53.473Z,54.00
2019-02-21T06:40:40.001Z,54.05
2019-02-21T06:41:23.037Z,54.25
2019-02-21T06:42:01.125Z,54.51
2019-02-21T06:42:58.869Z,54.57
2019-02-21T06:43:38.057Z,54.56
2019-02-21T06:44:22.130Z,54.21
2019-02-21T06:45:08.575Z,54.02
2019-02-21T06:45:58.013Z,53.93
2019-02-21T06:46:36.555Z,54.07
2019-02-21T06:47:25.392Z,54.08
2019-02-21T06:48:22.705Z,54.20
2019-02-21T06:48:59.585Z,54.38
2019-02-21T06:49:58.783Z,54.63
2019-02-21T06:50:39.684Z,54.67
2019-02-21T06:51:48.895Z,54.77
2019-02-21T06:52:28.292Z,54.74
2019-02-21T06:53:08.566Z,53.18
2019-02-21T06:54:08.885Z,52.84
2019-02-21T06:54:56.664Z,52.59
2019-02-21T06:55:35.036Z,52.82
2019-02-21T06:56:29.604Z,52.98
2019-02-21T06:57:11.607Z,53.10
2019-02-21T06:58:19.405Z,53.07
2019-02-21T06:59:07.896Z,52.88
2019-02-21T07:00:07.534Z,52.96
2019-02-21T07:00:50.828Z,53.10
2019-02-21T07:01:29.500Z,52.85
2019-02-21T07:02:09.183Z,52.90
2019-02-21T07:02:51.089Z,53.05
2019-02-21T07:03:29.104Z,52.95
2019-02-21T07:04:14.661Z,52.77
2019-02-21T07:05:17.304Z,53.12
2019-02-21T07:06:04.997Z,53.16
2019-02-21T07:07:22.609Z,52.76
2019-02-21T07:10:07.493Z,52.42
2019-02-21T07:10:49.315Z,52.05
2019-02-21T07:12:31.113Z,51.63
2019-02-21T07:13:35.029Z,52.15
2019-02-21T07:14:13.097Z,52.49
2019-02-21T07:14:53.516Z,52.06
2019-02-21T07:15:34.014Z,52.02
2019-02-21T07:16:18.731Z,52.11
2019-02-21T07:18:07.709Z,52.48
2019-02-21T07:19:07.541Z,51.71
2019-02-21T07:20:07.438Z,51.73
2019-02-21T07:20:47.301Z,51.94
2019-02-21T07:21:32.589Z,52.03
2019-02-21T07:22:24.780Z,51.92
2019-02-21T07:23:45.170Z,52.09
2019-02-21T07:24:28.396Z,52.17
2019-02-21T07:25:56.855Z,52.13
2019-02-21T07:26:34.843Z,52.01
2019-02-21T07:27:53.885Z,51.99
2019-02-21T07:28:35.254Z,52.03
2019-02-21T07:29:33.581Z,51.93
2019-02-21T07:30:32.371Z,52.21
2019-02-21T07:32:39.092Z,52.73
2019-02-21T07:34:39.384Z,53.37
2019-02-21T07:35:17.139Z,54.22
2019-02-21T07:36:10.870Z,54.45
2019-02-21T07:37:33.098Z,54.79
2019-02-21T07:40:08.470Z,55.38
2019-02-21T07:40:58.869Z,55.58
2019-02-21T07:42:33.510Z,55.90
2019-02-21T07:44:59.732Z,55.78
2019-02-21T07:45:50.045Z,56.06
2019-02-21T07:47:35.180Z,55.89
2019-02-21T07:50:17.755Z,55.00
2019-02-21T07:51:02.139Z,54.79
2019-02-21T07:52:05.466Z,54.86
2019-02-21T07:53:29.727Z,54.59
2019-02-21T07:54:17.037Z,54.33
2019-02-21T07:55:44.723Z,54.08
2019-02-21T07:58:03.991Z,53.93
2019-02-21T07:59:48.271Z,54.02
2019-02-21T08:01:00.153Z,53.83
2019-02-21T08:02:05.281Z,53.55
2019-02-21T08:07:08.148Z,53.55
2019-02-21T08:07:53.766Z,53.10
2019-02-21T08:09:01.695Z,52.79
2019-02-21T08:10:05.104Z,52.83
2019-02-21T08:13:27.471Z,52.81
2019-02-21T08:14:30.384Z,52.53
2019-02-21T08:16:21.670Z,52.44
2019-02-21T08:22:22.810Z,52.73
2019-02-21T08:23:26.058Z,52.84
2019-02-21T08:24:57.199Z,52.73
2019-02-21T08:27:28.482Z,53.08
2019-02-21T08:28:06.664Z,53.62
2019-02-21T08:28:57.642Z,53.82
2019-02-21T08:30:06.750Z,53.89
2019-02-21T08:30:47.437Z,53.64
2019-02-21T08:31:48.700Z,53.82
2019-02-21T08:32:55.742Z,53.82
2019-02-21T08:35:25.396Z,53.70
2019-02-21T08:36:15.258Z,53.99
2019-02-21T08:40:24.925Z,55.17
2019-02-21T08:41:03.058Z,55.67
2019-02-21T08:42:35.690Z,55.61
2019-02-21T08:43:14.274Z,55.61
2019-02-21T08:44:23.148Z,55.44
2019-02-21T08:45:17.739Z,55.45
2019-02-21T08:46:01.703Z,55.44
2019-02-21T08:46:47.228Z,55.32
2019-02-21T08:47:47.471Z,55.18
2019-02-21T08:49:01.353Z,55.22
2019-02-21T08:50:42.268Z,54.62
2019-02-21T08:54:59.829Z,54.33
2019-02-21T08:55:50.153Z,54.14
2019-02-21T08:59:29.916Z,53.90
2019-02-21T09:00:14.694Z,53.94
2019-02-21T09:01:28.235Z,54.03
2019-02-21T09:03:23.191Z,54.18
2019-02-21T09:04:26.059Z,54.40
2019-02-21T09:05:09.533Z,54.42
2019-02-21T09:06:25.177Z,54.46
2019-02-21T09:07:39.266Z,54.66
2019-02-21T09:08:33.085Z,55.24
2019-02-21T09:09:26.194Z,55.93
2019-02-21T09:10:36.334Z,56.00
2019-02-21T09:11:28.238Z,56.30
2019-02-21T09:12:15.582Z,56.54
2019-02-21T09:12:57.363Z,56.68
2019-02-21T09:13:41.797Z,56.92
2019-02-21T09:14:49.012Z,56.97
2019-02-21T09:16:31.150Z,57.04
2019-02-21T09:17:27.823Z,57.21
2019-02-21T09:18:25.156Z,57.53
2019-02-21T09:21:13.076Z,57.82
2019-02-21T09:21:53.535Z,58.34
2019-02-21T09:22:34.808Z,58.40
2019-02-21T09:23:45.326Z,58.64
2019-02-21T09:26:02.986Z,58.98
2019-02-21T09:26:50.056Z,59.03
2019-02-21T09:27:49.093Z,59.00
2019-02-21T09:28:35.207Z,59.04
2019-02-21T09:29:23.094Z,59.05
2019-02-21T09:30:11.604Z,59.17
2019-02-21T09:30:58.622Z,59.27
2019-02-21T09:31:40.430Z,59.45
2019-02-21T09:33:37.137Z,59.41
2019-02-21T09:34:21.064Z,59.47
2019-02-21T09:35:21.589Z,59.47
2019-02-21T09:35:58.417Z,59.54
2019-02-21T09:37:05.346Z,59.69
2019-02-21T09:37:42.433Z,59.64
2019-02-21T09:38:59.612Z,59.70
2019-02-21T09:39:36.918Z,59.69
2019-02-21T09:40:42.664Z,59.99
2019-02-21T09:42:22.287Z,59.93
2019-02-21T09:42:59.777Z,59.95
2019-02-21T09:43:46.586Z,60.07
2019-02-21T09:44:28.504Z,60.08
2019-02-21T09:45:04.754Z,60.12
2019-02-21T09:45:46.930Z,60.18
2019-02-21T09:46:37.455Z,60.27
2019-02-21T09:47:33.027Z,60.34
2019-02-21T09:48:14.722Z,60.34
2019-02-21T09:48:53.908Z,60.36
2019-02-21T09:49:31.390Z,60.35
2019-02-21T09:50:09.579Z,60.14
2019-02-21T09:51:18.126Z,60.00
2019-02-21T09:52:00.422Z,59.94
2019-02-21T09:52:40.764Z,59.75
2019-02-21T09:53:21.878Z,59.64
2019-02-21T09:54:09.146Z,59.63
2019-02-21T09:54:53.349Z,59.61
2019-02-21T09:55:36.977Z,59.59
2019-02-21T09:56:29.809Z,59.58
2019-02-21T09:57:12.446Z,59.67
2019-02-21T09:57:42.264Z,59.77
2019-02-21T09:58:38.345Z,59.75
2019-02-21T09:59:28.850Z,59.80
2019-02-21T10:00:15.035Z,59.88
2019-02-21T10:00:57.408Z,59.89
2019-02-21T10:01:39.787Z,60.00
2019-02-21T10:02:26.607Z,60.12
2019-02-21T10:03:04.486Z,60.13
2019-02-21T10:03:40.979Z,60.24
2019-02-21T10:04:31.630Z,60.34
2019-02-21T10:05:06.659Z,60.48
2019-02-21T10:05:49.865Z,60.46
2019-02-21T10:06:41.219Z,60.46
2019-02-21T10:08:01.432Z,60.35
2019-02-21T10:08:40.635Z,60.53
2019-02-21T10:10:03.526Z,60.64
2019-02-21T10:10:55.841Z,60.67
2019-02-21T10:11:37.758Z,60.89
2019-02-21T10:12:19.256Z,60.97
2019-02-21T10:13:32.110Z,61.16
2019-02-21T10:14:09.102Z,61.21
2019-02-21T10:15:06.274Z,61.22
2019-02-21T10:16:04.637Z,61.21
2019-02-21T10:16:40.667Z,61.36
2019-02-21T10:17:31.876Z,61.30
2019-02-21T10:18:58.156Z,61.30
2019-02-21T10:19:54.159Z,61.28
2019-02-21T10:20:38.003Z,61.30
2019-02-21T10:21:15.654Z,61.33
2019-02-21T10:22:07.976Z,61.22
2019-02-21T10:22:47.545Z,61.12
2019-02-21T10:23:43.508Z,61.08
2019-02-21T10:24:57.588Z,61.13
2019-02-21T10:26:36.504Z,61.34
2019-02-21T10:27:16.778Z,61.47
2019-02-21T10:27:59.042Z,61.55
2019-02-21T10:28:45.041Z,61.60
2019-02-21T10:29:22.021Z,61.59
2019-02-21T10:30:23.697Z,61.60
2019-02-21T10:31:04.339Z,61.59
2019-02-21T10:31:52.297Z,61.65
2019-02-21T10:32:31.947Z,61.76
2019-02-21T10:33:09.556Z,62.02
2019-02-21T10:33:53.302Z,62.08
2019-02-21T10:34:59.331Z,62.16
2019-02-21T10:35:47.762Z,62.21
2019-02-21T10:36:24.277Z,62.20
2019-02-21T10:37:03.248Z,62.07
2019-02-21T10:37:40.946Z,61.88
2019-02-21T10:38:22.206Z,61.68
2019-02-21T10:39:04.049Z,61.46
2019-02-21T10:40:19.821Z,61.22
2019-02-21T10:41:09.033Z,61.07
2019-02-21T10:41:48.015Z,60.97
2019-02-21T10:42:28.782Z,60.93
2019-02-21T10:43:08.451Z,60.91
2019-02-21T10:44:06.031Z,60.96
2019-02-21T10:45:03.574Z,60.98
2019-02-21T10:46:00.375Z,61.03
2019-02-21T10:46:42.280Z,61.05
2019-02-21T10:47:30.914Z,61.12
2019-02-21T10:48:08.030Z,61.11
2019-02-21T10:49:07.598Z,61.18
2019-02-21T10:49:46.627Z,61.32
2019-02-21T10:50:24.473Z,61.49
2019-02-21T10:51:04.978Z,61.52
2019-02-21T10:52:03.897Z,61.57
2019-02-21T10:53:07.536Z,61.68
2019-02-21T10:53:47.037Z,61.76
2019-02-21T10:55:04.572Z,61.78
2019-02-21T10:56:05.818Z,61.76
2019-02-21T10:56:45.833Z,61.77
2019-02-21T10:57:45.755Z,61.73
2019-02-21T10:58:54.678Z,61.71
2019-02-21T10:59:46.673Z,61.77
2019-02-21T11:00:26.058Z,62.44
2019-02-21T11:01:21.016Z,63.32
2019-02-21T11:02:18.905Z,63.67
2019-02-21T11:03:21.621Z,64.02
2019-02-21T11:04:17.586Z,64.20
2019-02-21T11:04:55.220Z,63.71
2019-02-21T11:05:56.222Z,62.01
2019-02-21T11:06:46.592Z,61.65
2019-02-21T11:08:42.005Z,61.13
2019-02-21T11:09:48.372Z,60.87
2019-02-21T11:10:37.733Z,60.59
2019-02-21T11:12:59.735Z,60.65
2019-02-21T11:15:42.300Z,60.75
2019-02-21T11:16:43.484Z,60.93
2019-02-21T11:19:00.935Z,61.05
2019-02-21T11:19:55.549Z,61.11
2019-02-21T11:21:12.455Z,61.17
2019-02-21T11:21:59.677Z,61.25
2019-02-21T11:22:37.164Z,61.42
2019-02-21T11:23:35.119Z,61.50
2019-02-21T11:24:13.910Z,61.55
2019-02-21T11:25:20.691Z,61.61
2019-02-21T11:26:35.584Z,61.63
2019-02-21T11:27:20.830Z,61.56
2019-02-21T11:27:59.117Z,61.54
2019-02-21T11:28:38.055Z,61.37
2019-02-21T11:29:15.807Z,61.32
2019-02-21T11:29:55.084Z,61.34
2019-02-21T11:30:51.156Z,61.35
2019-02-21T11:31:31.810Z,61.22
2019-02-21T11:32:29.800Z,60.76
2019-02-21T11:33:47.934Z,60.70
2019-02-21T11:34:26.089Z,60.58
2019-02-21T11:35:06.539Z,60.19
2019-02-21T11:36:18.906Z,59.97
2019-02-21T11:37:01.646Z,59.83
2019-02-21T11:37:46.836Z,59.72
2019-02-21T11:38:32.572Z,59.74
2019-02-21T11:39:38.753Z,59.71
2019-02-21T11:40:37.066Z,59.76
2019-02-21T11:41:51.362Z,59.78
2019-02-21T11:42:37.859Z,59.86
2019-02-21T11:43:15.768Z,59.96
2019-02-21T11:43:57.031Z,60.04
2019-02-21T11:45:29.803Z,60.17
2019-02-21T11:46:20.339Z,60.19
2019-02-21T11:46:59.145Z,60.24
2019-02-21T11:47:58.723Z,60.28
2019-02-21T11:48:43.393Z,60.27
2019-02-21T11:50:51.606Z,60.38
2019-02-21T11:51:37.752Z,60.53
2019-02-21T11:53:42.889Z,60.69
2019-02-21T11:54:56.672Z,60.77
2019-02-21T11:55:49.259Z,60.78
2019-02-21T11:56:58.023Z,60.88
2019-02-21T11:57:40.273Z,60.91
2019-02-21T11:58:24.819Z,60.96
2019-02-21T11:59:41.536Z,61.05
2019-02-21T12:03:08.405Z,61.31
2019-02-21T12:03:57.854Z,61.39
2019-02-21T12:04:57.394Z,61.45
2019-02-21T12:07:32.396Z,61.58
2019-02-21T12:08:55.675Z,61.76
2019-02-21T12:09:36.099Z,61.83
2019-02-21T12:10:53.198Z,61.85
2019-02-21T12:11:49.380Z,61.86
2019-02-21T12:12:36.652Z,61.73
2019-02-21T12:13:21.680Z,61.50
2019-02-21T12:13:59.216Z,61.75
2019-02-21T12:15:04.659Z,62.03
2019-02-21T12:16:06.627Z,62.14
2019-02-21T12:17:42.737Z,63.03
2019-02-21T12:18:25.898Z,64.91
2019-02-21T12:19:09.473Z,69.71
2019-02-21T12:19:48.750Z,69.39
2019-02-21T12:21:25.020Z,69.85
2019-02-21T12:22:44.202Z,70.50
2019-02-21T12:23:26.318Z,72.26
2019-02-21T12:24:08.586Z,72.67
2019-02-21T12:25:15.011Z,73.17
2019-02-21T12:26:09.943Z,74.47
2019-02-21T12:27:08.509Z,75.63
2019-02-21T12:28:51.061Z,75.63
2019-02-21T12:30:00.543Z,72.52
2019-02-21T12:31:10.589Z,72.52
2019-02-21T12:31:51.106Z,73.81
2019-02-21T12:32:35.533Z,75.40
2019-02-21T12:33:25.144Z,77.50
2019-02-21T12:34:07.036Z,78.37
2019-02-21T12:36:07.559Z,79.40
2019-02-21T12:37:06.956Z,80.21
2019-02-21T12:37:49.138Z,80.83
2019-02-21T12:38:29.775Z,81.71
2019-02-21T12:39:10.181Z,81.75
2019-02-21T12:40:07.507Z,81.96
2019-02-21T12:40:49.020Z,82.22
2019-02-21T12:41:34.169Z,82.60
2019-02-21T12:42:16.935Z,82.79
2019-02-21T12:42:59.463Z,82.97
2019-02-21T12:44:30.842Z,83.16
2019-02-21T12:51:19.092Z,84.21
2019-02-21T12:52:03.920Z,84.49
2019-02-21T12:53:05.594Z,84.52
2019-02-21T12:53:48.913Z,84.58
2019-02-21T12:54:35.779Z,84.49
2019-02-21T12:55:27.038Z,84.50